createdAt,value
2018-06-11T00:01:03.387Z,67.62
2018-06-11T00:02:07.874Z,67.00
2018-06-11T00:03:12.081Z,67.34
2018-06-11T00:04:16.477Z,67.36
2018-06-11T00:05:20.720Z,67.03
2018-06-11T00:06:24.958Z,67.52
2018-06-11T00:07:29.340Z,67.12
2018-06-11T00:08:33.825Z,67.83
2018-06-11T00:09:38.127Z,67.17
2018-06-11T00:10:42.473Z,67.54
2018-06-11T00:11:46.719Z,67.57
2018-06-11T00:12:50.980Z,67.68
2018-06-11T00:13:55.463Z,67.33
2018-06-11T00:14:59.983Z,67.40
2018-06-11T00:16:04.245Z,67.66
2018-06-11T00:17:08.491Z,67.47
2018-06-11T00:18:12.936Z,67.85
2018-06-11T00:19:17.164Z,67.79
2018-06-11T00:20:22.208Z,67.72
2018-06-11T00:21:26.539Z,67.40
2018-06-11T00:22:30.803Z,67.85
2018-06-11T00:23:35.128Z,68.13
2018-06-11T00:24:39.494Z,67.34
2018-06-11T00:25:43.852Z,67.85
2018-06-11T00:26:48.108Z,68.07
2018-06-11T00:27:52.566Z,68.05
2018-06-11T00:28:56.812Z,67.38
2018-06-11T00:30:01.012Z,67.99
2018-06-11T00:31:05.456Z,67.12
2018-06-11T00:32:09.939Z,67.58
2018-06-11T00:33:14.263Z,67.18
2018-06-11T00:34:18.577Z,67.57
2018-06-11T00:35:22.856Z,67.17
2018-06-11T00:36:27.127Z,67.59
2018-06-11T00:37:31.351Z,67.50
2018-06-11T00:38:35.596Z,67.25
2018-06-11T00:39:39.815Z,66.78
2018-06-11T00:40:44.091Z,67.36
2018-06-11T00:41:48.315Z,66.99
2018-06-11T00:42:52.578Z,66.60
2018-06-11T00:43:57.086Z,67.14
2018-06-11T00:45:01.343Z,67.31
2018-06-11T00:46:05.595Z,67.02
2018-06-11T00:47:09.874Z,67.10
2018-06-11T00:48:14.199Z,67.27
2018-06-11T00:49:18.429Z,67.17
2018-06-11T00:50:22.620Z,67.05
2018-06-11T00:51:26.868Z,67.10
2018-06-11T00:52:31.163Z,66.80
2018-06-11T00:53:35.407Z,67.31
2018-06-11T00:54:39.820Z,67.35
2018-06-11T00:55:55.193Z,67.21
2018-06-11T00:56:59.504Z,67.33
2018-06-11T00:58:04.019Z,67.79
2018-06-11T00:59:08.249Z,67.25
2018-06-11T01:00:12.512Z,67.57
2018-06-11T01:01:16.741Z,67.38
2018-06-11T01:02:21.251Z,67.64
2018-06-11T01:03:25.668Z,67.62
2018-06-11T01:04:29.944Z,67.46
2018-06-11T01:05:34.240Z,67.49
2018-06-11T01:06:38.483Z,67.67
2018-06-11T01:07:42.960Z,67.71
2018-06-11T01:08:47.232Z,67.87
2018-06-11T01:09:51.468Z,67.82
2018-06-11T01:10:55.799Z,67.93
2018-06-11T01:12:00.415Z,67.21
2018-06-11T01:13:04.741Z,67.24
2018-06-11T01:14:09.118Z,67.30
2018-06-11T01:15:13.379Z,67.72
2018-06-11T01:16:17.904Z,67.66
2018-06-11T01:17:22.250Z,67.29
2018-06-11T01:18:26.595Z,67.39
2018-06-11T01:19:30.830Z,67.72
2018-06-11T01:20:35.342Z,67.00
2018-06-11T01:21:39.598Z,67.59
2018-06-11T01:22:43.795Z,67.53
2018-06-11T01:23:48.006Z,67.22
2018-06-11T01:24:52.222Z,67.28
2018-06-11T01:25:56.464Z,67.36
2018-06-11T01:27:00.659Z,67.09
2018-06-11T01:28:04.900Z,67.45
2018-06-11T01:29:09.347Z,67.93
2018-06-11T01:30:13.587Z,67.91
2018-06-11T01:31:18.375Z,66.88
2018-06-11T01:32:22.629Z,67.38
2018-06-11T01:33:26.991Z,67.02
2018-06-11T01:34:31.180Z,67.69
2018-06-11T01:35:35.418Z,66.92
2018-06-11T01:36:39.843Z,67.18
2018-06-11T01:37:44.130Z,67.25
2018-06-11T01:38:48.364Z,67.34
2018-06-11T01:39:52.765Z,66.71
2018-06-11T01:40:57.197Z,67.12
2018-06-11T01:42:01.633Z,67.56
2018-06-11T01:43:05.868Z,67.32
2018-06-11T01:44:10.063Z,66.83
2018-06-11T01:45:14.307Z,67.26
2018-06-11T01:46:18.519Z,67.33
2018-06-11T01:47:22.884Z,66.98
2018-06-11T01:48:27.135Z,67.31
2018-06-11T01:49:31.556Z,67.49
2018-06-11T01:50:35.848Z,67.84
2018-06-11T01:51:40.128Z,67.46
2018-06-11T01:52:44.387Z,67.60
2018-06-11T01:53:48.685Z,67.83
2018-06-11T01:54:53.148Z,67.70
2018-06-11T01:55:57.333Z,67.41
2018-06-11T01:57:01.626Z,67.17
2018-06-11T01:58:05.882Z,67.87
2018-06-11T01:59:10.280Z,67.57
2018-06-11T02:00:14.556Z,67.22
2018-06-11T02:01:18.768Z,67.49
2018-06-11T02:02:23.334Z,67.48
2018-06-11T02:03:27.621Z,67.79
2018-06-11T02:04:31.895Z,67.57
2018-06-11T02:05:36.160Z,67.19
2018-06-11T02:06:40.386Z,68.06
2018-06-11T02:07:44.633Z,67.69
2018-06-11T02:08:48.827Z,67.58
2018-06-11T02:09:53.104Z,67.50
2018-06-11T02:10:57.404Z,68.23
2018-06-11T02:12:01.743Z,67.69
2018-06-11T02:13:06.310Z,67.54
2018-06-11T02:14:10.525Z,67.78
2018-06-11T02:15:14.764Z,68.09
2018-06-11T02:16:18.972Z,68.29
2018-06-11T02:17:23.226Z,67.85
2018-06-11T02:18:27.525Z,67.92
2018-06-11T02:19:31.799Z,68.05
2018-06-11T02:20:35.964Z,67.63
2018-06-11T02:21:40.167Z,68.23
2018-06-11T02:22:44.399Z,68.58
2018-06-11T02:23:48.819Z,68.01
2018-06-11T02:24:53.111Z,68.76
2018-06-11T02:25:57.402Z,68.52
2018-06-11T02:27:01.721Z,68.20
2018-06-11T02:28:05.983Z,68.07
2018-06-11T02:29:10.163Z,68.61
2018-06-11T02:30:14.399Z,68.23
2018-06-11T02:31:18.612Z,68.11
2018-06-11T02:32:22.799Z,68.57
2018-06-11T02:33:27.078Z,68.88
2018-06-11T02:34:31.247Z,68.79
2018-06-11T02:35:35.699Z,68.50
2018-06-11T02:36:39.914Z,68.46
2018-06-11T02:37:44.123Z,68.64
2018-06-11T02:38:48.581Z,68.34
2018-06-11T02:39:52.789Z,68.64
2018-06-11T02:40:57.036Z,68.89
2018-06-11T02:42:01.247Z,68.87
2018-06-11T02:43:05.875Z,68.34
2018-06-11T02:44:10.080Z,68.33
2018-06-11T02:45:14.321Z,69.09
2018-06-11T02:46:18.547Z,68.79
2018-06-11T02:47:22.952Z,68.68
2018-06-11T02:48:27.244Z,69.18
2018-06-11T02:49:31.454Z,68.80
2018-06-11T02:50:35.693Z,68.51
2018-06-11T02:51:40.006Z,69.07
2018-06-11T02:52:44.255Z,69.38
2018-06-11T02:53:48.523Z,69.01
2018-06-11T02:54:52.794Z,68.77
2018-06-11T02:55:57.162Z,68.55
2018-06-11T02:57:01.414Z,69.43
2018-06-11T02:58:05.743Z,68.86
2018-06-11T02:59:09.976Z,68.66
2018-06-11T03:00:14.173Z,69.12
2018-06-11T03:01:18.589Z,68.98
2018-06-11T03:02:23.141Z,68.94
2018-06-11T03:03:27.484Z,69.24
2018-06-11T03:04:31.719Z,68.76
2018-06-11T03:05:36.261Z,69.37
2018-06-11T03:06:40.521Z,69.55
2018-06-11T03:07:45.459Z,69.20
2018-06-11T03:08:49.709Z,69.32
2018-06-11T03:09:54.045Z,68.83
2018-06-11T03:10:58.288Z,68.78
2018-06-11T03:12:02.492Z,69.20
2018-06-11T03:13:06.875Z,68.97
2018-06-11T03:14:11.088Z,69.60
2018-06-11T03:15:15.537Z,69.48
2018-06-11T03:16:20.035Z,69.10
2018-06-11T03:17:24.315Z,68.76
2018-06-11T03:18:28.578Z,69.77
2018-06-11T03:19:32.775Z,69.19
2018-06-11T03:20:37.013Z,69.31
2018-06-11T03:21:41.239Z,69.14
2018-06-11T03:22:45.455Z,68.89
2018-06-11T03:23:49.715Z,69.26
2018-06-11T03:24:53.976Z,68.80
2018-06-11T03:25:58.182Z,68.84
2018-06-11T03:27:02.397Z,69.59
2018-06-11T03:28:06.643Z,68.77
2018-06-11T03:29:10.948Z,69.28
2018-06-11T03:30:15.207Z,68.99
2018-06-11T03:31:19.598Z,69.09
2018-06-11T03:32:23.868Z,69.33
2018-06-11T03:33:28.140Z,69.32
2018-06-11T03:34:32.446Z,68.97
2018-06-11T03:35:36.690Z,69.01
2018-06-11T03:36:40.907Z,69.07
2018-06-11T03:37:45.114Z,69.16
2018-06-11T03:38:49.351Z,68.69
2018-06-11T03:39:53.783Z,68.65
2018-06-11T03:40:58.236Z,69.23
2018-06-11T03:42:02.590Z,69.35
2018-06-11T03:43:06.884Z,68.69
2018-06-11T03:44:11.296Z,69.35
2018-06-11T03:45:15.637Z,69.31
2018-06-11T03:46:19.875Z,69.09
2018-06-11T03:47:24.171Z,68.76
2018-06-11T03:48:28.387Z,68.61
2018-06-11T03:49:32.840Z,69.09
2018-06-11T03:50:37.141Z,68.04
2018-06-11T03:51:41.519Z,69.10
2018-06-11T03:52:45.769Z,68.33
2018-06-11T03:53:50.507Z,69.34
2018-06-11T03:54:54.909Z,68.45
2018-06-11T03:55:59.118Z,68.97
2018-06-11T03:57:03.419Z,68.62
2018-06-11T03:58:07.659Z,68.78
2018-06-11T03:59:11.991Z,68.33
2018-06-11T04:00:16.208Z,68.73
2018-06-11T04:01:20.458Z,68.01
2018-06-11T04:02:25.258Z,67.70
2018-06-11T04:03:29.474Z,68.25
2018-06-11T04:04:33.688Z,68.22
2018-06-11T04:05:37.969Z,68.35
2018-06-11T04:06:42.379Z,68.31
2018-06-11T04:07:46.638Z,68.62
2018-06-11T04:08:50.896Z,67.79
2018-06-11T04:09:55.187Z,68.61
2018-06-11T04:10:59.532Z,68.10
2018-06-11T04:12:03.678Z,68.11
2018-06-11T04:13:07.944Z,67.88
2018-06-11T04:14:12.200Z,67.89
2018-06-11T04:15:16.426Z,68.71
2018-06-11T04:16:20.660Z,68.25
2018-06-11T04:17:24.968Z,68.58
2018-06-11T04:18:29.172Z,69.22
2018-06-11T04:19:33.399Z,68.62
2018-06-11T04:20:37.610Z,68.96
2018-06-11T04:21:41.870Z,68.88
2018-06-11T04:22:46.109Z,68.56
2018-06-11T04:23:50.361Z,68.37
2018-06-11T04:24:54.652Z,68.08
2018-06-11T04:25:58.937Z,68.42
2018-06-11T04:27:03.364Z,68.45
2018-06-11T04:28:07.643Z,68.06
2018-06-11T04:29:11.903Z,67.74
2018-06-11T04:30:16.087Z,68.20
2018-06-11T04:31:20.328Z,67.65
2018-06-11T04:32:24.527Z,68.03
2018-06-11T04:33:28.785Z,67.62
2018-06-11T04:34:33.004Z,67.97
2018-06-11T04:35:37.226Z,67.85
2018-06-11T04:36:41.394Z,67.81
2018-06-11T04:37:45.621Z,68.17
2018-06-11T04:38:49.806Z,67.39
2018-06-11T04:39:54.062Z,68.19
2018-06-11T04:40:58.242Z,68.22
2018-06-11T04:42:02.483Z,67.43
2018-06-11T04:43:06.716Z,68.12
2018-06-11T04:44:10.936Z,68.10
2018-06-11T04:45:15.130Z,67.42
2018-06-11T04:46:19.619Z,67.95
2018-06-11T04:47:23.899Z,68.38
2018-06-11T04:48:28.151Z,67.81
2018-06-11T04:49:32.427Z,67.82
2018-06-11T04:50:36.676Z,67.59
2018-06-11T04:51:40.960Z,67.77
2018-06-11T04:52:45.291Z,67.30
2018-06-11T04:53:49.473Z,67.33
2018-06-11T04:54:53.840Z,66.81
2018-06-11T04:55:58.072Z,66.76
2018-06-11T04:57:02.321Z,67.10
2018-06-11T04:58:06.527Z,67.29
2018-06-11T04:59:10.825Z,66.77
2018-06-11T05:00:15.293Z,67.18
2018-06-11T05:01:19.579Z,66.34
2018-06-11T05:02:23.994Z,66.84
2018-06-11T05:03:28.169Z,67.16
2018-06-11T05:04:32.555Z,66.56
2018-06-11T05:05:36.882Z,66.12
2018-06-11T05:06:41.131Z,66.32
2018-06-11T05:07:45.702Z,66.49
2018-06-11T05:08:49.901Z,66.07
2018-06-11T05:09:54.140Z,66.09
2018-06-11T05:10:58.420Z,66.17
2018-06-11T05:12:02.639Z,66.00
2018-06-11T05:13:06.864Z,66.09
2018-06-11T05:14:11.190Z,66.32
2018-06-11T05:15:15.460Z,65.82
2018-06-11T05:16:19.746Z,66.16
2018-06-11T05:17:24.040Z,65.71
2018-06-11T05:18:28.669Z,65.92
2018-06-11T05:19:32.979Z,65.78
2018-06-11T05:20:37.180Z,65.74
2018-06-11T05:21:41.459Z,65.95
2018-06-11T05:22:45.888Z,66.20
2018-06-11T05:23:50.182Z,65.72
2018-06-11T05:24:54.393Z,65.64
2018-06-11T05:25:58.682Z,64.98
2018-06-11T05:27:02.917Z,65.54
2018-06-11T05:28:07.099Z,65.36
2018-06-11T05:29:11.347Z,65.10
2018-06-11T05:30:15.595Z,65.28
2018-06-11T05:31:19.906Z,65.00
2018-06-11T05:32:24.231Z,65.42
2018-06-11T05:33:28.509Z,65.54
2018-06-11T05:34:32.872Z,64.84
2018-06-11T05:35:37.277Z,65.53
2018-06-11T05:36:41.514Z,65.16
2018-06-11T05:37:45.808Z,65.46
2018-06-11T05:38:50.242Z,64.90
2018-06-11T05:39:54.565Z,65.28
2018-06-11T05:40:58.878Z,65.36
2018-06-11T05:42:03.179Z,65.36
2018-06-11T05:43:07.471Z,65.30
2018-06-11T05:44:11.710Z,65.51
2018-06-11T05:45:16.065Z,64.69
2018-06-11T05:46:20.479Z,65.19
2018-06-11T05:47:24.747Z,65.09
2018-06-11T05:48:28.978Z,64.58
2018-06-11T05:49:33.286Z,64.96
2018-06-11T05:50:37.575Z,65.38
2018-06-11T05:51:41.778Z,64.86
2018-06-11T05:52:46.099Z,64.86
2018-06-11T05:53:50.385Z,64.33
2018-06-11T05:54:54.690Z,64.61
2018-06-11T05:55:59.023Z,64.06
2018-06-11T05:57:03.220Z,64.79
2018-06-11T05:58:07.555Z,63.89
2018-06-11T05:59:11.816Z,64.14
2018-06-11T06:00:16.126Z,63.88
2018-06-11T06:01:20.367Z,63.64
2018-06-11T06:02:24.913Z,63.68
2018-06-11T06:03:29.109Z,63.33
2018-06-11T06:04:33.418Z,62.89
2018-06-11T06:05:37.753Z,62.67
2018-06-11T06:06:41.970Z,62.84
2018-06-11T06:07:46.192Z,62.38
2018-06-11T06:08:50.379Z,62.34
2018-06-11T06:09:54.572Z,62.04
2018-06-11T06:10:58.854Z,61.57
2018-06-11T06:12:03.184Z,61.28
2018-06-11T06:13:07.574Z,61.76
2018-06-11T06:14:11.859Z,61.65
2018-06-11T06:15:16.228Z,61.23
2018-06-11T06:16:20.490Z,60.50
2018-06-11T06:17:24.720Z,61.05
2018-06-11T06:18:30.346Z,61.08
2018-06-11T06:19:34.608Z,61.06
2018-06-11T06:20:38.835Z,60.59
2018-06-11T06:21:43.114Z,60.64
2018-06-11T06:22:47.312Z,60.32
2018-06-11T06:23:51.529Z,59.72
2018-06-11T06:24:55.759Z,59.19
2018-06-11T06:26:00.058Z,58.91
2018-06-11T06:27:04.398Z,59.42
2018-06-11T06:28:08.596Z,59.57
2018-06-11T06:29:12.866Z,58.76
2018-06-11T06:30:17.080Z,58.93
2018-06-11T06:31:21.292Z,59.61
2018-06-11T06:32:25.498Z,59.36
2018-06-11T06:33:29.704Z,59.58
2018-06-11T06:34:33.945Z,59.19
2018-06-11T06:35:38.114Z,59.12
2018-06-11T06:36:42.351Z,59.25
2018-06-11T06:37:46.965Z,59.04
2018-06-11T06:38:51.289Z,58.92
2018-06-11T06:39:55.671Z,58.50
2018-06-11T06:40:59.874Z,59.08
2018-06-11T06:42:04.123Z,58.72
2018-06-11T06:43:08.325Z,58.84
2018-06-11T06:44:12.522Z,58.60
2018-06-11T06:45:16.712Z,58.41
2018-06-11T06:46:21.133Z,58.78
2018-06-11T06:47:25.505Z,58.36
2018-06-11T06:48:29.711Z,57.99
2018-06-11T06:49:33.907Z,58.28
2018-06-11T06:50:38.148Z,58.24
2018-06-11T06:51:42.346Z,58.42
2018-06-11T06:52:46.594Z,58.33
2018-06-11T06:53:50.842Z,57.91
2018-06-11T06:54:55.228Z,58.09
2018-06-11T06:55:59.450Z,57.98
2018-06-11T06:57:04.031Z,58.45
2018-06-11T06:58:08.271Z,58.23
2018-06-11T06:59:12.461Z,58.14
2018-06-11T07:00:16.726Z,57.87
2018-06-11T07:01:20.896Z,58.16
2018-06-11T07:02:25.105Z,58.60
2018-06-11T07:03:29.551Z,58.30
2018-06-11T07:04:33.914Z,58.51
2018-06-11T07:05:38.135Z,58.16
2018-06-11T07:06:42.411Z,57.92
2018-06-11T07:07:46.736Z,58.52
2018-06-11T07:08:51.030Z,58.24
2018-06-11T07:09:55.237Z,58.30
2018-06-11T07:10:59.426Z,58.40
2018-06-11T07:12:03.838Z,57.67
2018-06-11T07:13:08.020Z,58.30
2018-06-11T07:14:12.252Z,57.49
2018-06-11T07:15:16.478Z,57.80
2018-06-11T07:16:20.719Z,57.52
2018-06-11T07:17:24.874Z,57.22
2018-06-11T07:18:29.026Z,57.54
2018-06-11T07:19:33.256Z,57.50
2018-06-11T07:20:37.494Z,57.33
2018-06-11T07:21:41.727Z,57.46
2018-06-11T07:22:45.898Z,57.48
2018-06-11T07:23:50.078Z,57.01
2018-06-11T07:24:54.297Z,57.22
2018-06-11T07:25:58.526Z,57.18
2018-06-11T07:27:02.825Z,56.99
2018-06-11T07:28:07.130Z,57.36
2018-06-11T07:29:11.316Z,57.36
2018-06-11T07:30:15.550Z,57.50
2018-06-11T07:31:19.801Z,58.11
2018-06-11T07:32:24.327Z,57.95
2018-06-11T07:33:28.604Z,57.90
2018-06-11T07:34:32.810Z,57.75
2018-06-11T07:35:36.987Z,58.02
2018-06-11T07:36:41.164Z,57.19
2018-06-11T07:37:45.315Z,57.79
2018-06-11T07:38:49.501Z,57.70
2018-06-11T07:39:53.757Z,57.79
2018-06-11T07:40:58.042Z,57.50
2018-06-11T07:42:02.209Z,57.37
2018-06-11T07:43:06.460Z,57.23
2018-06-11T07:44:10.659Z,57.62
2018-06-11T07:45:14.929Z,57.05
2018-06-11T07:46:19.121Z,57.22
2018-06-11T07:47:23.335Z,56.99
2018-06-11T07:48:27.563Z,57.11
2018-06-11T07:49:31.788Z,57.85
2018-06-11T07:50:36.074Z,57.93
2018-06-11T07:51:40.350Z,57.22
2018-06-11T07:52:44.503Z,57.71
2018-06-11T07:53:48.669Z,57.30
2018-06-11T07:54:52.896Z,57.91
2018-06-11T07:55:57.063Z,57.66
2018-06-11T07:57:01.308Z,57.88
2018-06-11T07:58:05.488Z,58.05
2018-06-11T07:59:09.981Z,57.25
2018-06-11T08:00:14.156Z,57.97
2018-06-11T08:01:18.395Z,57.21
2018-06-11T08:02:22.889Z,57.56
2018-06-11T08:03:27.234Z,57.60
2018-06-11T08:04:31.504Z,57.42
2018-06-11T08:05:35.735Z,56.88
2018-06-11T08:06:39.974Z,56.99
2018-06-11T08:07:44.202Z,56.92
2018-06-11T08:08:48.470Z,56.79
2018-06-11T08:09:53.059Z,56.64
2018-06-11T08:10:57.949Z,56.55
2018-06-11T08:12:02.131Z,56.44
2018-06-11T08:13:06.443Z,56.32
2018-06-11T08:14:10.844Z,55.76
2018-06-11T08:15:15.103Z,55.59
2018-06-11T08:16:19.615Z,55.56
2018-06-11T08:17:23.810Z,55.87
2018-06-11T08:18:28.198Z,55.31
2018-06-11T08:19:32.409Z,55.46
2018-06-11T08:20:36.608Z,55.30
2018-06-11T08:21:40.807Z,55.20
2018-06-11T08:23:47.981Z,54.84
2018-06-11T08:24:52.194Z,55.40
2018-06-11T08:25:56.670Z,54.66
2018-06-11T08:27:00.901Z,55.28
2018-06-11T08:28:05.276Z,54.85
2018-06-11T08:29:09.503Z,54.77
2018-06-11T08:30:13.758Z,53.66
2018-06-11T08:31:18.027Z,53.72
2018-06-11T08:32:22.747Z,54.51
2018-06-11T08:33:26.967Z,54.11
2018-06-11T08:34:31.319Z,53.48
2018-06-11T08:35:35.797Z,53.43
2018-06-11T08:36:39.993Z,53.82
2018-06-11T08:37:44.203Z,53.66
2018-06-11T08:38:48.408Z,53.08
2018-06-11T08:39:52.631Z,53.29
2018-06-11T08:40:56.899Z,53.60
2018-06-11T08:42:01.134Z,53.94
2018-06-11T08:43:05.417Z,54.08
2018-06-11T08:44:09.642Z,54.14
2018-06-11T08:45:13.916Z,53.98
2018-06-11T08:46:18.185Z,53.37
2018-06-11T08:47:22.422Z,53.93
2018-06-11T08:48:26.658Z,53.76
2018-06-11T08:49:30.966Z,53.46
2018-06-11T08:50:35.326Z,53.84
2018-06-11T08:51:39.683Z,52.67
2018-06-11T08:52:43.856Z,53.13
2018-06-11T08:53:48.075Z,53.13
2018-06-11T08:54:52.362Z,52.63
2018-06-11T08:55:56.662Z,53.29
2018-06-11T08:57:00.959Z,53.15
2018-06-11T08:58:05.190Z,52.43
2018-06-11T08:59:09.444Z,52.49
2018-06-11T09:00:13.667Z,52.24
2018-06-11T09:01:17.951Z,52.43
2018-06-11T09:02:22.258Z,52.09
2018-06-11T09:03:26.534Z,52.11
2018-06-11T09:04:30.952Z,52.20
2018-06-11T09:05:35.371Z,52.54
2018-06-11T09:06:39.627Z,51.92
2018-06-11T09:07:43.853Z,51.90
2018-06-11T09:08:48.079Z,52.25
2018-06-11T09:09:52.322Z,51.77
2018-06-11T09:10:56.933Z,51.88
2018-06-11T09:12:01.130Z,51.42
2018-06-11T09:13:05.339Z,52.04
2018-06-11T09:14:09.526Z,51.86
2018-06-11T09:15:13.785Z,52.32
2018-06-11T09:16:17.962Z,51.73
2018-06-11T09:17:22.208Z,51.50
2018-06-11T09:18:26.424Z,52.13
2018-06-11T09:19:30.599Z,51.69
2018-06-11T09:20:34.964Z,52.25
2018-06-11T09:21:39.200Z,52.53
2018-06-11T09:22:43.420Z,51.84
2018-06-11T09:23:47.583Z,51.85
2018-06-11T09:24:51.755Z,52.46
2018-06-11T09:25:56.187Z,51.57
2018-06-11T09:27:00.403Z,51.61
2018-06-11T09:28:04.838Z,51.18
2018-06-11T09:29:09.044Z,51.24
2018-06-11T09:30:13.478Z,51.27
2018-06-11T09:31:17.681Z,50.85
2018-06-11T09:32:21.894Z,50.72
2018-06-11T09:33:26.278Z,50.96
2018-06-11T09:34:30.495Z,51.35
2018-06-11T09:35:34.743Z,51.50
2018-06-11T09:36:39.042Z,51.66
2018-06-11T09:37:43.234Z,50.94
2018-06-11T09:38:47.529Z,51.43
2018-06-11T09:39:51.798Z,51.02
2018-06-11T09:40:56.411Z,51.08
2018-06-11T09:42:00.594Z,51.49
2018-06-11T09:43:04.865Z,50.90
2018-06-11T09:44:09.296Z,51.03
2018-06-11T09:45:13.567Z,51.04
2018-06-11T09:46:17.890Z,51.13
2018-06-11T09:47:22.253Z,51.19
2018-06-11T09:48:26.534Z,50.93
2018-06-11T09:49:31.000Z,51.69
2018-06-11T09:50:35.218Z,51.75
2018-06-11T09:51:39.524Z,51.78
2018-06-11T09:52:43.931Z,52.05
2018-06-11T09:53:48.259Z,51.87
2018-06-11T09:54:52.474Z,51.84
2018-06-11T09:55:56.711Z,51.87
2018-06-11T09:57:00.986Z,51.37
2018-06-11T09:58:05.686Z,51.76
2018-06-11T09:59:09.932Z,51.39
2018-06-11T10:00:19.545Z,50.92
2018-06-11T10:01:23.747Z,50.91
2018-06-11T10:02:28.006Z,51.34
2018-06-11T10:03:32.167Z,51.23
2018-06-11T10:04:36.619Z,51.71
2018-06-11T10:05:41.407Z,51.73
2018-06-11T10:06:45.611Z,51.94
2018-06-11T10:07:50.178Z,52.07
2018-06-11T10:08:54.375Z,51.85
2018-06-11T10:09:58.561Z,51.96
2018-06-11T10:11:02.883Z,51.84
2018-06-11T10:12:07.099Z,52.01
2018-06-11T10:13:11.302Z,52.50
2018-06-11T10:14:15.491Z,52.58
2018-06-11T10:15:19.823Z,52.56
2018-06-11T10:16:24.035Z,51.94
2018-06-11T10:17:28.278Z,51.17
2018-06-11T10:18:32.495Z,51.73
2018-06-11T10:19:36.670Z,51.44
2018-06-11T10:20:41.046Z,51.29
2018-06-11T10:21:45.682Z,51.61
2018-06-11T10:22:49.903Z,51.43
2018-06-11T10:23:54.089Z,51.00
2018-06-11T10:24:58.292Z,50.99
2018-06-11T10:26:02.676Z,50.88
2018-06-11T10:27:07.326Z,51.07
2018-06-11T10:28:11.480Z,50.34
2018-06-11T10:29:15.694Z,50.55
2018-06-11T10:30:19.877Z,50.70
2018-06-11T10:31:24.155Z,50.52
2018-06-11T10:32:28.385Z,50.58
2018-06-11T10:33:32.635Z,50.31
2018-06-11T10:34:36.886Z,50.46
2018-06-11T10:35:41.083Z,50.62
2018-06-11T10:36:45.303Z,50.38
2018-06-11T10:37:49.550Z,49.92
2018-06-11T10:38:53.899Z,50.37
2018-06-11T10:39:58.180Z,50.38
2018-06-11T10:41:02.397Z,49.71
2018-06-11T10:42:06.677Z,50.18
2018-06-11T10:43:11.154Z,50.04
2018-06-11T10:44:15.374Z,50.27
2018-06-11T10:45:19.636Z,49.81
2018-06-11T10:46:23.819Z,49.68
2018-06-11T10:47:28.019Z,49.70
2018-06-11T10:48:32.657Z,49.50
2018-06-11T10:49:36.826Z,49.82
2018-06-11T10:50:41.010Z,49.57
2018-06-11T10:51:45.248Z,49.09
2018-06-11T10:52:49.487Z,49.83
2018-06-11T10:53:53.750Z,49.33
2018-06-11T10:54:57.941Z,49.27
2018-06-11T10:56:02.122Z,49.75
2018-06-11T10:57:06.491Z,49.50
2018-06-11T10:58:10.686Z,49.51
2018-06-11T10:59:14.964Z,49.03
2018-06-11T11:00:19.214Z,49.19
2018-06-11T11:01:23.387Z,48.86
2018-06-11T11:02:27.594Z,48.93
2018-06-11T11:03:31.780Z,48.51
2018-06-11T11:04:36.550Z,49.04
2018-06-11T11:05:40.706Z,49.16
2018-06-11T11:06:44.910Z,48.57
2018-06-11T11:07:49.087Z,48.71
2018-06-11T11:08:53.457Z,49.53
2018-06-11T11:09:57.690Z,48.87
2018-06-11T11:11:01.896Z,49.10
2018-06-11T11:12:06.080Z,49.20
2018-06-11T11:13:10.535Z,48.78
2018-06-11T11:14:14.947Z,48.18
2018-06-11T11:15:19.402Z,48.54
2018-06-11T11:16:23.684Z,48.96
2018-06-11T11:17:28.063Z,48.11
2018-06-11T11:18:32.307Z,48.70
2018-06-11T11:19:36.561Z,48.08
2018-06-11T11:20:40.869Z,47.67
2018-06-11T11:21:45.101Z,47.79
2018-06-11T11:22:49.318Z,47.79
2018-06-11T11:23:53.549Z,48.05
2018-06-11T11:24:57.737Z,48.51
2018-06-11T11:26:01.970Z,48.43
2018-06-11T11:27:06.207Z,48.64
2018-06-11T11:28:10.476Z,47.85
2018-06-11T11:29:14.642Z,48.47
2018-06-11T11:30:18.843Z,48.05
2018-06-11T11:31:23.093Z,48.55
2018-06-11T11:32:27.402Z,48.16
2018-06-11T11:33:31.663Z,47.91
2018-06-11T11:34:35.924Z,48.87
2018-06-11T11:35:40.096Z,48.57
2018-06-11T11:36:44.380Z,48.89
2018-06-11T11:37:48.598Z,48.46
2018-06-11T11:38:52.888Z,47.83
2018-06-11T11:39:57.132Z,47.71
2018-06-11T11:41:01.283Z,48.23
2018-06-11T11:42:05.504Z,48.60
2018-06-11T11:43:10.245Z,47.90
2018-06-11T11:44:14.605Z,47.97
2018-06-11T11:45:18.794Z,48.47
2018-06-11T11:46:23.260Z,48.31
2018-06-11T11:47:27.571Z,47.73
2018-06-11T11:48:32.419Z,48.00
2018-06-11T11:49:36.585Z,48.56
2018-06-11T11:50:40.823Z,48.08
2018-06-11T11:51:45.068Z,48.09
2018-06-11T11:52:49.307Z,47.97
2018-06-11T11:53:53.500Z,47.24
2018-06-11T11:54:57.703Z,47.23
2018-06-11T11:56:01.902Z,47.72
2018-06-11T11:57:06.159Z,47.32
2018-06-11T11:58:10.358Z,47.16
2018-06-11T11:59:14.852Z,47.24
2018-06-11T12:00:19.057Z,46.95
2018-06-11T12:01:23.316Z,47.07
2018-06-11T12:02:27.554Z,46.23
2018-06-11T12:03:31.795Z,45.75
2018-06-11T12:04:36.071Z,46.26
2018-06-11T12:05:40.458Z,46.03
2018-06-11T12:06:44.674Z,45.67
2018-06-11T12:07:48.903Z,45.48
2018-06-11T12:08:53.125Z,45.83
2018-06-11T12:09:57.291Z,45.53
2018-06-11T12:11:01.464Z,45.41
2018-06-11T12:12:05.688Z,45.37
2018-06-11T12:13:10.030Z,45.96
2018-06-11T12:14:14.277Z,46.02
2018-06-11T12:15:18.488Z,45.57
2018-06-11T12:16:22.725Z,46.08
2018-06-11T12:17:26.918Z,45.23
2018-06-11T12:18:31.161Z,45.10
2018-06-11T12:19:35.603Z,45.27
2018-06-11T12:20:39.999Z,45.52
2018-06-11T12:21:44.132Z,44.42
2018-06-11T12:22:48.318Z,44.94
2018-06-11T12:23:52.498Z,44.66
2018-06-11T12:24:56.835Z,44.68
2018-06-11T12:26:01.047Z,45.21
2018-06-11T12:27:05.281Z,44.76
2018-06-11T12:28:09.520Z,45.26
2018-06-11T12:29:13.686Z,44.67
2018-06-11T12:30:17.898Z,44.43
2018-06-11T12:31:22.140Z,44.29
2018-06-11T12:32:26.349Z,43.32
2018-06-11T12:33:30.526Z,43.30
2018-06-11T12:34:34.717Z,42.91
2018-06-11T12:35:39.014Z,43.23
2018-06-11T12:36:43.212Z,43.20
2018-06-11T12:37:47.432Z,42.55
2018-06-11T12:38:51.637Z,42.31
2018-06-11T12:39:56.118Z,42.96
2018-06-11T12:41:00.425Z,42.67
2018-06-11T12:42:04.681Z,42.91
2018-06-11T12:43:08.912Z,43.19
2018-06-11T12:44:13.081Z,43.42
2018-06-11T12:45:17.377Z,43.37
2018-06-11T12:46:21.696Z,43.68
2018-06-11T12:47:25.948Z,43.88
2018-06-11T12:48:30.153Z,43.39
2018-06-11T12:49:34.291Z,43.70
2018-06-11T12:50:38.490Z,43.62
2018-06-11T12:51:42.742Z,43.66
2018-06-11T12:52:46.969Z,43.93
2018-06-11T12:53:51.152Z,43.37
2018-06-11T12:54:55.293Z,43.76
2018-06-11T12:55:59.510Z,43.46
2018-06-11T12:57:03.778Z,42.95
2018-06-11T12:58:07.987Z,43.49
2018-06-11T12:59:12.154Z,43.17
2018-06-11T13:00:16.354Z,42.56
2018-06-11T13:01:20.704Z,42.51
2018-06-11T13:02:25.148Z,42.27
2018-06-11T13:03:29.390Z,42.41
2018-06-11T13:04:33.727Z,42.38
2018-06-11T13:05:38.267Z,42.40
2018-06-11T13:06:42.744Z,42.79
2018-06-11T13:07:46.926Z,42.42
2018-06-11T13:08:51.098Z,41.98
2018-06-11T13:09:55.364Z,41.03
2018-06-11T13:10:59.575Z,42.08
2018-06-11T13:12:03.856Z,42.10
2018-06-11T13:13:08.550Z,42.18
2018-06-11T13:14:12.773Z,41.71
2018-06-11T13:15:17.237Z,41.85
2018-06-11T13:16:21.467Z,41.78
2018-06-11T13:17:25.729Z,41.66
2018-06-11T13:18:30.092Z,41.01
2018-06-11T13:19:34.612Z,40.94
2018-06-11T13:20:39.009Z,41.45
2018-06-11T13:21:43.195Z,41.23
2018-06-11T13:22:47.815Z,41.21
2018-06-11T13:23:52.095Z,41.07
2018-06-11T13:24:56.298Z,41.56
2018-06-11T13:26:00.553Z,41.32
2018-06-11T13:27:04.850Z,41.72
2018-06-11T13:28:09.047Z,41.18
2018-06-11T13:29:13.376Z,41.57
2018-06-11T13:30:17.605Z,41.08
2018-06-11T13:31:21.942Z,41.58
2018-06-11T13:32:26.112Z,40.83
2018-06-11T13:33:30.328Z,41.53
2018-06-11T13:34:34.789Z,41.74
2018-06-11T13:35:38.954Z,41.61
2018-06-11T13:36:43.226Z,42.23
2018-06-11T13:37:47.435Z,42.31
2018-06-11T13:38:51.647Z,42.42
2018-06-11T13:39:55.914Z,42.04
2018-06-11T13:41:00.366Z,42.80
2018-06-11T13:42:04.625Z,42.61
2018-06-11T13:43:08.839Z,42.19
2018-06-11T13:44:13.022Z,42.71
2018-06-11T13:45:17.309Z,42.69
2018-06-11T13:46:21.754Z,42.91
2018-06-11T13:47:25.971Z,42.38
2018-06-11T13:48:30.223Z,42.84
2018-06-11T13:49:34.474Z,42.77